This is the latest recevied weather packets stored in our database for station/object DJ8HS-1. If no packets are shown the sender has not sent any weather packets the latest 1 day(s).
| Time | Temp. | Humidity | Pressure | Rain* | Wind** | Luminosity | Snow |
|---|---|---|---|---|---|---|---|
| 1777969853 | 23.33° C | 46% | 0 hPa | 0 mm | 0.45 m/s, 267° | - | - |
| 1777969553 | 22.78° C | 48% | 0 hPa | 0 mm | 0 m/s | - | - |
| 1777969255 | 22.22° C | 49% | 0 hPa | 0 mm | 0.89 m/s, 208° | - | - |
| 1777968952 | 22.22° C | 50% | 0 hPa | 0 mm | 0.45 m/s, 168° | - | - |
| 1777968652 | 22.22° C | 50% | 0 hPa | 0 mm | 0 m/s | - | - |
| 1777968352 | 21.67° C | 51% | 0 hPa | 0 mm | 0 m/s | - | - |
| 1777968052 | 21.67° C | 52% | 0 hPa | 0 mm | 0.45 m/s, 233° | - | - |
| 1777967751 | 21.11° C | 55% | 0 hPa | 0 mm | 0.45 m/s, 132° | - | - |
| 1777967451 | 21.11° C | 57% | 0 hPa | 0 mm | 0.89 m/s, 213° | - | - |
| 1777967150 | 20.56° C | 58% | 0 hPa | 0 mm | 0 m/s | - | - |
| 1777966850 | 19.44° C | 65% | 0 hPa | 0 mm | 0 m/s | - | - |
| 1777966550 | 18.33° C | 71% | 0 hPa | 0 mm | 0 m/s | - | - |
| 1777966250 | 17.22° C | 74% | 0 hPa | 0 mm | 0 m/s | - | - |
| 1777965949 | 17.22° C | 75% | 0 hPa | 0 mm | 0 m/s | - | - |
| 1777965649 | 16.67° C | 75% | 0 hPa | 0 mm | 0 m/s | - | - |
| 1777965349 | 16.11° C | 76% | 0 hPa | 0 mm | 0 m/s | - | - |
| 1777965048 | 16.11° C | 77% | 0 hPa | 0 mm | 0 m/s | - | - |
| 1777964748 | 16.11° C | 78% | 0 hPa | 0 mm | 0 m/s | - | - |
| 1777964448 | 16.11° C | 78% | 0 hPa | 0 mm | 0 m/s | - | - |
| 1777964148 | 15.56° C | 79% | 0 hPa | 0 mm | 0 m/s | - | - |
| 1777963847 | 15.56° C | 79% | 0 hPa | 0 mm | 0 m/s | - | - |
| 1777963547 | 15.56° C | 79% | 0 hPa | 0 mm | 0 m/s | - | - |
| 1777963247 | 15.56° C | 79% | 0 hPa | 0 mm | 0 m/s | - | - |
| 1777962946 | 15° C | 80% | 0 hPa | 0 mm | 0 m/s | - | - |
| 1777962646 | 15° C | 80% | 0 hPa | 0 mm | 0 m/s | - | - |
* Rain latest hour (hover to see other rain measurements)
** Current wind speed in m/s (hover to see current wind gust speed)